createdAt,value
2022-11-23T00:00:58.017Z,70.3
2022-11-23T00:02:14.143Z,70.2
2022-11-23T00:03:30.391Z,70.2
2022-11-23T00:04:46.583Z,70.2
2022-11-23T00:06:02.713Z,70.2
2022-11-23T00:07:18.964Z,70.3
2022-11-23T00:08:35.145Z,70.3
2022-11-23T00:09:51.341Z,70.4
2022-11-23T00:11:07.470Z,70.3
2022-11-23T00:12:23.718Z,70.2
2022-11-23T00:13:39.833Z,70.3
2022-11-23T00:14:55.045Z,70.3
2022-11-23T00:16:11.282Z,70.3
2022-11-23T00:17:27.471Z,70.3
2022-11-23T00:18:43.664Z,70.4
2022-11-23T00:19:59.781Z,70.3
2022-11-23T00:21:15.968Z,70.2
2022-11-23T00:22:32.234Z,70.3
2022-11-23T00:23:48.419Z,70.3
2022-11-23T00:25:04.599Z,70.4
2022-11-23T00:26:20.790Z,70.3
2022-11-23T00:27:36.914Z,70.4
2022-11-23T00:28:53.108Z,70.4
2022-11-23T00:30:09.344Z,70.3
2022-11-23T00:31:24.494Z,70.4
2022-11-23T00:32:40.749Z,70.3
2022-11-23T00:33:56.859Z,70.3
2022-11-23T00:35:13.113Z,70.4
2022-11-23T00:36:29.239Z,70.4
2022-11-23T00:37:45.425Z,70.4
2022-11-23T00:39:01.682Z,70.4
2022-11-23T00:40:17.808Z,70.4
2022-11-23T00:41:33.978Z,70.5
2022-11-23T00:42:50.252Z,70.4
2022-11-23T00:44:06.442Z,70.5
2022-11-23T00:45:22.613Z,70.3
2022-11-23T00:46:38.815Z,70.3
2022-11-23T00:47:54.018Z,70.3
2022-11-23T00:49:10.204Z,70.4
2022-11-23T00:50:26.384Z,70.4
2022-11-23T00:51:42.502Z,70.3
2022-11-23T00:52:58.682Z,70.3
2022-11-23T00:54:14.944Z,70.2
2022-11-23T00:55:31.128Z,70.2
2022-11-23T00:56:47.328Z,70.3
2022-11-23T00:58:03.520Z,70.3
2022-11-23T00:59:19.627Z,70.3
2022-11-23T01:00:35.893Z,70.3
2022-11-23T01:01:51.990Z,70.3
2022-11-23T01:03:08.250Z,70.3
2022-11-23T01:04:23.466Z,70.2
2022-11-23T01:05:39.576Z,70.3
2022-11-23T01:06:55.839Z,70.3
2022-11-23T01:08:12.024Z,70.3
2022-11-23T01:09:28.222Z,70.3
2022-11-23T01:10:44.405Z,70.4
2022-11-23T01:12:00.513Z,70.3
2022-11-23T01:13:16.777Z,70.3
2022-11-23T01:14:32.967Z,70.3
2022-11-23T01:15:49.153Z,70.3
2022-11-23T01:17:05.339Z,70.3
2022-11-23T01:18:21.453Z,70.3
2022-11-23T01:19:37.720Z,70.3
2022-11-23T01:20:52.826Z,70.4
2022-11-23T01:22:09.018Z,70.3
2022-11-23T01:23:25.284Z,70.3
2022-11-23T01:24:41.490Z,70.3
2022-11-23T01:25:57.590Z,70.4
2022-11-23T01:27:13.770Z,70.4
2022-11-23T01:28:29.969Z,70.4
2022-11-23T01:29:46.234Z,70.4
2022-11-23T01:31:02.415Z,70.4
2022-11-23T01:32:18.607Z,70.4
2022-11-23T01:33:34.000Z,70.4
2022-11-23T01:34:50.901Z,70.3
2022-11-23T01:36:07.171Z,70.4
2022-11-23T01:37:22.280Z,70.3
2022-11-23T01:38:38.564Z,70.4
2022-11-23T01:39:54.742Z,70.4
2022-11-23T01:41:10.837Z,70.3
2022-11-23T01:42:27.041Z,70.4
2022-11-23T01:43:43.225Z,70.4
2022-11-23T01:44:59.413Z,70.4
2022-11-23T01:46:15.685Z,70.5
2022-11-23T01:47:31.877Z,70.4
2022-11-23T01:48:48.062Z,70.4
2022-11-23T01:50:04.150Z,70.4
2022-11-23T01:51:20.427Z,70.3
2022-11-23T01:52:36.525Z,70.3
2022-11-23T01:53:51.824Z,70.3
2022-11-23T01:55:07.928Z,70.3
2022-11-23T01:56:24.100Z,70.2
2022-11-23T01:57:40.393Z,70.4
2022-11-23T01:58:56.578Z,70.4
2022-11-23T02:00:12.669Z,70.4
2022-11-23T02:01:28.939Z,70.4
2022-11-23T02:02:45.131Z,70.4
2022-11-23T02:04:01.328Z,70.4
2022-11-23T02:05:17.409Z,70.4
2022-11-23T02:06:33.610Z,70.4
2022-11-23T02:07:49.794Z,70.4
2022-11-23T02:09:05.970Z,70.4
2022-11-23T02:10:21.188Z,70.4
2022-11-23T02:11:37.465Z,70.3
2022-11-23T02:12:53.654Z,70.3
2022-11-23T02:14:09.745Z,70.4
2022-11-23T02:15:25.926Z,70.4
2022-11-23T02:16:42.206Z,70.4
2022-11-23T02:17:57.320Z,70.4
2022-11-23T02:19:13.601Z,70.3
2022-11-23T02:20:29.794Z,70.3
2022-11-23T02:21:45.991Z,70.4
2022-11-23T02:23:02.076Z,70.4
2022-11-23T02:24:18.352Z,70.4
2022-11-23T02:25:34.441Z,70.4
2022-11-23T02:26:50.744Z,70.5
2022-11-23T02:28:06.919Z,70.4
2022-11-23T02:29:23.108Z,70.4
2022-11-23T02:30:39.195Z,70.3
2022-11-23T02:31:55.390Z,70.3
2022-11-23T02:33:11.666Z,70.3
2022-11-23T02:34:26.783Z,70.3
2022-11-23T02:35:43.065Z,70.3
2022-11-23T02:36:59.239Z,70.3
2022-11-23T02:38:15.336Z,70.3
2022-11-23T02:39:31.620Z,70.4
2022-11-23T02:40:47.802Z,70.3
2022-11-23T02:42:03.999Z,70.4
2022-11-23T02:43:20.180Z,70.5
2022-11-23T02:44:36.379Z,70.4
2022-11-23T02:45:52.452Z,70.2
2022-11-23T02:47:08.643Z,70.3
2022-11-23T02:48:24.940Z,70.1
2022-11-23T02:49:41.122Z,70.1
2022-11-23T02:50:56.232Z,70.1
2022-11-23T02:52:12.507Z,70.2
2022-11-23T02:53:28.708Z,70.2
2022-11-23T02:54:44.796Z,70.2
2022-11-23T02:56:00.975Z,70.2
2022-11-23T02:57:17.273Z,70.2
2022-11-23T02:58:33.449Z,70.2
2022-11-23T02:59:49.537Z,70.2
2022-11-23T03:01:05.723Z,70.3
2022-11-23T03:02:21.918Z,70.2
2022-11-23T03:03:38.105Z,70.1
2022-11-23T03:04:54.386Z,70.2
2022-11-23T03:06:10.467Z,70.2
2022-11-23T03:07:25.679Z,70.3
2022-11-23T03:08:41.867Z,70.2
2022-11-23T03:09:58.149Z,70.2
2022-11-23T03:11:14.244Z,70.1
2022-11-23T03:12:30.425Z,70.1
2022-11-23T03:13:46.603Z,70.1
2022-11-23T03:15:02.909Z,70.1
2022-11-23T03:16:18.987Z,70.2
2022-11-23T03:17:35.274Z,70.2
2022-11-23T03:18:51.461Z,70.1
2022-11-23T03:20:07.554Z,70.1
2022-11-23T03:21:23.843Z,70.2
2022-11-23T03:22:40.027Z,70.2
2022-11-23T03:23:55.231Z,70.2
2022-11-23T03:25:11.316Z,70.2
2022-11-23T03:26:27.604Z,70.2
2022-11-23T03:27:43.801Z,70.3
2022-11-23T03:28:59.975Z,70.3
2022-11-23T03:30:16.175Z,70.2
2022-11-23T03:31:32.363Z,70.3
2022-11-23T03:32:48.000Z,70.3
2022-11-23T03:34:04.740Z,70.3
2022-11-23T03:35:20.916Z,70.3
2022-11-23T03:36:37.115Z,70.3
2022-11-23T03:37:53.188Z,70.2
2022-11-23T03:39:09.366Z,70.2
2022-11-23T03:40:24.688Z,70.3
2022-11-23T03:41:40.877Z,70.3
2022-11-23T03:42:57.062Z,70.3
2022-11-23T03:44:13.241Z,70.3
2022-11-23T03:45:29.433Z,70.3
2022-11-23T03:46:45.501Z,70.2
2022-11-23T03:48:01.808Z,70.3
2022-11-23T03:49:18.000Z,70.3
2022-11-23T03:50:34.064Z,70.3
2022-11-23T03:51:50.365Z,70.3
2022-11-23T03:53:06.555Z,70.3
2022-11-23T03:54:22.635Z,70.3
2022-11-23T03:55:38.945Z,70.3
2022-11-23T03:56:54.022Z,70.2
2022-11-23T03:58:10.325Z,70.3
2022-11-23T03:59:26.504Z,70.3
2022-11-23T04:00:42.701Z,70.3
2022-11-23T04:01:58.763Z,70.2
2022-11-23T04:03:14.954Z,70.3
2022-11-23T04:04:31.137Z,70.3
2022-11-23T04:05:47.451Z,70.3
2022-11-23T04:07:03.633Z,70.3
2022-11-23T04:08:19.817Z,70.3
2022-11-23T04:09:35.896Z,70.3
2022-11-23T04:10:52.202Z,70.3
2022-11-23T04:12:08.271Z,70.2
2022-11-23T04:13:23.599Z,70.3
2022-11-23T04:14:39.783Z,70.3
2022-11-23T04:15:55.854Z,70.2
2022-11-23T04:17:12.163Z,70.3
2022-11-23T04:18:28.334Z,70.3
2022-11-23T04:19:44.527Z,70.3
2022-11-23T04:21:00.708Z,70.3
2022-11-23T04:22:16.894Z,70.4
2022-11-23T04:23:33.091Z,70.4
2022-11-23T04:24:49.159Z,70.3
2022-11-23T04:26:05.458Z,70.4
2022-11-23T04:27:21.530Z,70.2
2022-11-23T04:28:37.708Z,70.3
2022-11-23T04:29:53.044Z,70.2
2022-11-23T04:31:09.114Z,70.3
2022-11-23T04:32:25.418Z,70.1
2022-11-23T04:33:41.601Z,69.9
2022-11-23T04:34:57.660Z,70.1
2022-11-23T04:36:13.985Z,70.1
2022-11-23T04:37:30.175Z,70
2022-11-23T04:38:46.356Z,70.2
2022-11-23T04:40:02.414Z,70.1
2022-11-23T04:41:18.607Z,70.1
2022-11-23T04:42:34.923Z,70.1
2022-11-23T04:43:51.098Z,70.4
2022-11-23T04:45:07.289Z,70.2
2022-11-23T04:46:22.505Z,70.3
2022-11-23T04:47:38.547Z,70.3
2022-11-23T04:48:54.873Z,70.2
2022-11-23T04:50:11.049Z,70.2
2022-11-23T04:51:27.242Z,70.3
2022-11-23T04:52:43.441Z,70.3
2022-11-23T04:53:59.488Z,70.3
2022-11-23T04:55:15.674Z,70.1
2022-11-23T04:56:31.988Z,70.1
2022-11-23T04:57:48.063Z,70.2
2022-11-23T04:59:04.231Z,70.2
2022-11-23T05:00:20.429Z,70.2
2022-11-23T05:01:36.755Z,70.3
2022-11-23T05:02:51.942Z,70.3
2022-11-23T05:04:08.131Z,70.3
2022-11-23T05:05:24.330Z,70.3
2022-11-23T05:06:40.380Z,70.2
2022-11-23T05:07:56.700Z,70.3
2022-11-23T05:09:12.885Z,70.3
2022-11-23T05:10:29.072Z,70.2
2022-11-23T05:11:45.256Z,70.3
2022-11-23T05:13:01.461Z,70.4
2022-11-23T05:14:17.646Z,70.3
2022-11-23T05:15:33.833Z,70.3
2022-11-23T05:16:50.007Z,70.2
2022-11-23T05:18:06.060Z,70.3
2022-11-23T05:19:21.277Z,70.3
2022-11-23T05:20:37.587Z,70.4
2022-11-23T05:21:53.779Z,70.4
2022-11-23T05:23:09.962Z,70.3
2022-11-23T05:24:26.156Z,70.3
2022-11-23T05:25:42.205Z,70.4
2022-11-23T05:26:58.532Z,70.4
2022-11-23T05:28:14.582Z,70.3
2022-11-23T05:29:30.901Z,70.3
2022-11-23T05:30:46.957Z,70.2
2022-11-23T05:32:03.137Z,70
2022-11-23T05:33:19.323Z,69.9
2022-11-23T05:34:35.645Z,69.9
2022-11-23T05:35:50.722Z,69.9
2022-11-23T05:37:06.895Z,70.1
2022-11-23T05:38:23.236Z,70.1
2022-11-23T05:39:39.273Z,69.9
2022-11-23T05:40:55.465Z,70
2022-11-23T05:42:11.786Z,70.1
2022-11-23T05:43:27.990Z,70
2022-11-23T05:44:44.030Z,70.1
2022-11-23T05:46:00.359Z,70.1
2022-11-23T05:47:16.540Z,70.1
2022-11-23T05:48:32.584Z,70.1
2022-11-23T05:49:48.923Z,70.1
2022-11-23T05:51:04.969Z,70
2022-11-23T05:52:20.156Z,70.1
2022-11-23T05:53:36.488Z,70.1
2022-11-23T05:54:52.691Z,70.1
2022-11-23T05:56:08.735Z,70
2022-11-23T05:57:24.912Z,70.2
2022-11-23T05:58:41.247Z,70
2022-11-23T05:59:57.282Z,70
2022-11-23T06:01:13.471Z,70.1
2022-11-23T06:02:29.817Z,70.1
2022-11-23T06:03:45.844Z,70.1
2022-11-23T06:05:02.030Z,70.1
2022-11-23T06:06:18.215Z,70.1
2022-11-23T06:07:34.546Z,70.2
2022-11-23T06:08:49.607Z,70.2
2022-11-23T06:10:05.796Z,70.2
2022-11-23T06:11:21.997Z,70.1
2022-11-23T06:12:38.185Z,70.1
2022-11-23T06:13:54.511Z,70.1
2022-11-23T06:15:10.690Z,70.2
2022-11-23T06:16:26.739Z,70.3
2022-11-23T06:17:42.934Z,70.3
2022-11-23T06:18:59.107Z,70.4
2022-11-23T06:20:15.445Z,70.2
2022-11-23T06:21:31.637Z,70.4
2022-11-23T06:22:47.815Z,70.3
2022-11-23T06:24:04.016Z,70.3
2022-11-23T06:25:19.218Z,70.4
2022-11-23T06:26:35.406Z,70.4
2022-11-23T06:27:51.436Z,70.3
2022-11-23T06:29:07.775Z,70.4
2022-11-23T06:30:23.970Z,70.2
2022-11-23T06:31:40.150Z,70.2
2022-11-23T06:32:55.359Z,70.2
2022-11-23T06:34:11.402Z,70.2
2022-11-23T06:35:27.575Z,70.3
2022-11-23T06:36:43.916Z,70.3
2022-11-23T06:38:00.107Z,70.3
2022-11-23T06:39:16.304Z,70.3
2022-11-23T06:40:32.484Z,70.4
2022-11-23T06:41:48.511Z,70.2
2022-11-23T06:43:04.855Z,70.3
2022-11-23T06:44:20.896Z,70.3
2022-11-23T06:45:37.241Z,70.3
2022-11-23T06:46:53.422Z,70.3
2022-11-23T06:48:09.608Z,70.3
2022-11-23T06:49:24.651Z,70.3
2022-11-23T06:50:41.001Z,70.3
2022-11-23T06:51:57.186Z,70.3
2022-11-23T06:53:13.367Z,70.3
2022-11-23T06:54:29.415Z,70.3
2022-11-23T06:55:45.742Z,70.3
2022-11-23T06:57:01.937Z,70.3
2022-11-23T06:58:18.116Z,70.3
2022-11-23T06:59:34.318Z,70.3
2022-11-23T07:00:50.337Z,70.3
2022-11-23T07:02:06.695Z,70.4
2022-11-23T07:03:22.711Z,70.4
2022-11-23T07:04:39.053Z,70.3
2022-11-23T07:05:54.263Z,70.3
2022-11-23T07:07:10.441Z,70.3
2022-11-23T07:08:26.000Z,70.3
2022-11-23T07:09:42.658Z,70.4
2022-11-23T07:10:59.019Z,70.3
2022-11-23T07:12:15.000Z,70.3
2022-11-23T07:13:31.237Z,70.3
2022-11-23T07:14:47.424Z,70.3
2022-11-23T07:16:03.758Z,70.3
2022-11-23T07:17:19.959Z,70.3
2022-11-23T07:18:35.970Z,70.3
2022-11-23T07:19:52.154Z,70.2
2022-11-23T07:21:08.511Z,70.3
2022-11-23T07:22:23.725Z,70.2
2022-11-23T07:23:39.746Z,70.2
2022-11-23T07:24:55.924Z,70.5
2022-11-23T07:26:12.112Z,70.5
2022-11-23T07:27:28.301Z,70.5
2022-11-23T07:28:44.656Z,70.5
2022-11-23T07:30:00.678Z,70.5
2022-11-23T07:31:17.025Z,70.5
2022-11-23T07:32:33.237Z,70.5
2022-11-23T07:33:49.395Z,70.5
2022-11-23T07:35:05.590Z,70.6
2022-11-23T07:36:21.784Z,70.6
2022-11-23T07:37:37.966Z,70.5
2022-11-23T07:38:53.009Z,70.5
2022-11-23T07:40:09.364Z,70.4
2022-11-23T07:41:25.546Z,70.3
2022-11-23T07:42:41.554Z,70.3
2022-11-23T07:43:57.919Z,70.2
2022-11-23T07:45:13.946Z,70.3
2022-11-23T07:46:30.285Z,70.2
2022-11-23T07:47:46.472Z,70.3
2022-11-23T07:49:02.676Z,70
2022-11-23T07:50:18.691Z,70
2022-11-23T07:51:34.876Z,70
2022-11-23T07:52:51.240Z,70
2022-11-23T07:54:07.428Z,69.9
2022-11-23T07:55:22.627Z,70
2022-11-23T07:56:38.814Z,70
2022-11-23T07:57:54.834Z,70
2022-11-23T07:59:11.183Z,70
2022-11-23T08:00:27.370Z,70
2022-11-23T08:01:43.379Z,69.9
2022-11-23T08:02:59.744Z,70
2022-11-23T08:04:15.755Z,70.1
2022-11-23T08:05:31.941Z,70
2022-11-23T08:06:48.307Z,70
2022-11-23T08:08:04.503Z,70
2022-11-23T08:09:20.682Z,69.9
2022-11-23T08:10:36.704Z,69.9
2022-11-23T08:11:52.070Z,69.8
2022-11-23T08:13:08.081Z,69.8
2022-11-23T08:14:24.267Z,69.8
2022-11-23T08:15:40.629Z,69.8
2022-11-23T08:16:56.650Z,69.7
2022-11-23T08:18:12.826Z,69.6
2022-11-23T08:19:29.199Z,69.7
2022-11-23T08:20:45.204Z,69.6
2022-11-23T08:22:01.404Z,69.7
2022-11-23T08:23:17.762Z,69.6
2022-11-23T08:24:33.953Z,69.6
2022-11-23T08:25:50.136Z,69.6
2022-11-23T08:27:06.153Z,69.7
2022-11-23T08:28:21.533Z,69.6
2022-11-23T08:29:37.536Z,69.6
2022-11-23T08:30:53.734Z,69.4
2022-11-23T08:32:10.092Z,69.4
2022-11-23T08:33:26.091Z,69.4
2022-11-23T08:34:42.469Z,69.4
2022-11-23T08:35:58.478Z,69.5
2022-11-23T08:37:14.658Z,69.4
2022-11-23T08:38:31.029Z,69.4
2022-11-23T08:39:47.208Z,69.3
2022-11-23T08:41:03.412Z,69.3
2022-11-23T08:42:19.408Z,69.4
2022-11-23T08:43:35.785Z,69.3
2022-11-23T08:44:50.990Z,69.3
2022-11-23T08:46:07.165Z,69.4
2022-11-23T08:47:23.352Z,69.5
2022-11-23T08:48:39.352Z,69.5
2022-11-23T08:49:55.542Z,69.5
2022-11-23T08:51:11.729Z,69.5
2022-11-23T08:52:28.105Z,69.4
2022-11-23T08:53:44.284Z,69.4
2022-11-23T08:55:00.303Z,69.3
2022-11-23T08:56:16.487Z,69.2
2022-11-23T08:57:32.664Z,69.2
2022-11-23T08:58:48.870Z,68.9
2022-11-23T09:00:05.238Z,69.1
2022-11-23T09:01:20.442Z,69.1
2022-11-23T09:02:36.444Z,69
2022-11-23T09:03:52.821Z,68.9
2022-11-23T09:05:09.013Z,69
2022-11-23T09:06:25.001Z,68.8
2022-11-23T09:07:41.195Z,68.6
2022-11-23T09:08:57.579Z,68.4
2022-11-23T09:10:13.765Z,68.3
2022-11-23T09:11:29.766Z,68.1
2022-11-23T09:12:46.146Z,68
2022-11-23T09:14:02.144Z,67.9
2022-11-23T09:15:18.509Z,67.9
2022-11-23T09:16:34.705Z,67.8
2022-11-23T09:17:49.912Z,67.8
2022-11-23T09:19:05.916Z,67.7
2022-11-23T09:20:22.091Z,67.8
2022-11-23T09:21:38.283Z,67.7
2022-11-23T09:22:54.659Z,67.8
2022-11-23T09:24:10.861Z,67.7
2022-11-23T09:25:27.042Z,67.7
2022-11-23T09:26:43.244Z,67.7
2022-11-23T09:27:59.415Z,67.8
2022-11-23T09:29:15.415Z,67.7
2022-11-23T09:30:31.793Z,67.7
2022-11-23T09:31:47.984Z,67.8
2022-11-23T09:33:03.978Z,67.7
2022-11-23T09:34:19.391Z,67.6
2022-11-23T09:35:35.565Z,67.6
2022-11-23T09:36:51.574Z,67.4
2022-11-23T09:38:07.954Z,67.5
2022-11-23T09:39:24.151Z,67.5
2022-11-23T09:40:40.129Z,67.4
2022-11-23T09:41:56.324Z,67.3
2022-11-23T09:43:12.701Z,67.4
2022-11-23T09:44:28.709Z,67.3
2022-11-23T09:45:44.901Z,67.2
2022-11-23T09:47:01.278Z,67.1
2022-11-23T09:48:17.262Z,67.1
2022-11-23T09:49:33.650Z,67.2
2022-11-23T09:50:48.851Z,67.2
2022-11-23T09:52:04.860Z,67.3
2022-11-23T09:53:21.231Z,67.3
2022-11-23T09:54:37.231Z,67.4
2022-11-23T09:55:53.410Z,67.4
2022-11-23T09:57:09.807Z,67.3
2022-11-23T09:58:25.795Z,67.5
2022-11-23T09:59:41.984Z,67.4
2022-11-23T10:00:58.367Z,67.4
2022-11-23T10:02:14.555Z,67.3
2022-11-23T10:03:30.756Z,67.2
2022-11-23T10:04:46.929Z,67.3
2022-11-23T10:06:03.126Z,67.1
2022-11-23T10:07:18.130Z,67.2
2022-11-23T10:08:34.518Z,67.3
2022-11-23T10:09:50.702Z,67.4
2022-11-23T10:11:06.904Z,67.3
2022-11-23T10:12:23.090Z,67.2
2022-11-23T10:13:39.067Z,66.7
2022-11-23T10:14:55.264Z,66.8
2022-11-23T10:16:11.660Z,66.3
2022-11-23T10:17:27.840Z,66.2
2022-11-23T10:18:44.042Z,65.8
2022-11-23T10:20:00.023Z,65.6
2022-11-23T10:21:16.409Z,65.6
2022-11-23T10:22:32.407Z,65.4
2022-11-23T10:23:47.607Z,65.4
2022-11-23T10:25:03.995Z,65.5
2022-11-23T10:26:20.178Z,65.3
2022-11-23T10:27:36.367Z,65.1
2022-11-23T10:28:52.357Z,65.1
2022-11-23T10:30:08.743Z,64.8
2022-11-23T10:31:24.948Z,64.4
2022-11-23T10:32:40.923Z,64.2
2022-11-23T10:33:57.316Z,64.4
2022-11-23T10:35:13.506Z,64.2
2022-11-23T10:36:29.487Z,64.3
2022-11-23T10:37:45.886Z,64.4
2022-11-23T10:39:01.865Z,64.2
2022-11-23T10:40:17.082Z,64.1
2022-11-23T10:41:33.472Z,64
2022-11-23T10:42:49.441Z,63.6
2022-11-23T10:44:05.628Z,63.5
2022-11-23T10:45:21.833Z,63.5
2022-11-23T10:46:38.228Z,63.5
2022-11-23T10:47:53.441Z,63.1
2022-11-23T10:49:09.616Z,62.6
2022-11-23T10:50:25.811Z,62.4
2022-11-23T10:51:42.000Z,62.1
2022-11-23T10:52:58.195Z,62
2022-11-23T10:54:14.000Z,61.9
2022-11-23T10:55:30.573Z,62
2022-11-23T10:56:46.770Z,61.9
2022-11-23T10:58:02.951Z,62
2022-11-23T10:59:19.139Z,62.5
2022-11-23T11:00:35.108Z,63
2022-11-23T11:01:51.306Z,63.3
2022-11-23T11:03:07.711Z,63.4
2022-11-23T11:04:22.920Z,63
2022-11-23T11:05:39.096Z,62.5
2022-11-23T11:06:55.287Z,62.2
2022-11-23T11:08:11.276Z,62.1
2022-11-23T11:09:27.671Z,62.8
2022-11-23T11:10:43.861Z,63.4
2022-11-23T11:12:00.053Z,63.9
2022-11-23T11:13:16.245Z,64.3
2022-11-23T11:14:32.215Z,64.4
2022-11-23T11:15:48.613Z,64.5
2022-11-23T11:17:04.813Z,64.4
2022-11-23T11:18:20.996Z,64.2
2022-11-23T11:19:37.173Z,64.4
2022-11-23T11:20:52.385Z,64.7
2022-11-23T11:22:08.353Z,64.7
2022-11-23T11:23:24.776Z,64.4
2022-11-23T11:24:40.966Z,63.8
2022-11-23T11:25:57.143Z,63.5
2022-11-23T11:27:13.118Z,63.2
2022-11-23T11:28:29.528Z,62.9
2022-11-23T11:29:45.722Z,63.1
2022-11-23T11:31:01.902Z,63.5
2022-11-23T11:32:18.105Z,63.9
2022-11-23T11:33:34.277Z,64.2
2022-11-23T11:34:50.472Z,64.1
2022-11-23T11:36:06.662Z,63.8
2022-11-23T11:37:21.874Z,63.4
2022-11-23T11:38:37.843Z,62.8
2022-11-23T11:39:54.028Z,62.4
2022-11-23T11:41:10.430Z,62.6
2022-11-23T11:42:26.629Z,63
2022-11-23T11:43:42.587Z,63.3
2022-11-23T11:44:58.997Z,63.5
2022-11-23T11:46:14.968Z,63.5
2022-11-23T11:47:31.159Z,63.6
2022-11-23T11:48:47.578Z,63.4
2022-11-23T11:50:03.756Z,63.5
2022-11-23T11:51:19.735Z,63.6
2022-11-23T11:52:36.131Z,63.6
2022-11-23T11:53:51.115Z,63.7
2022-11-23T11:55:07.532Z,63.7
2022-11-23T11:56:23.734Z,63.8
2022-11-23T11:57:39.922Z,63.7
2022-11-23T11:58:56.109Z,63.4
2022-11-23T12:00:12.296Z,63
2022-11-23T12:01:28.478Z,62.7
2022-11-23T12:02:44.671Z,62.5
2022-11-23T12:04:00.856Z,62.4
2022-11-23T12:05:17.055Z,62.2
2022-11-23T12:06:33.003Z,62.2
2022-11-23T12:07:49.436Z,62.1
2022-11-23T12:09:05.397Z,62.1
2022-11-23T12:10:20.818Z,62
2022-11-23T12:11:37.020Z,62
2022-11-23T12:12:53.201Z,62
2022-11-23T12:14:09.161Z,62
2022-11-23T12:15:25.586Z,61.9
2022-11-23T12:16:41.537Z,62
2022-11-23T12:17:57.727Z,62
2022-11-23T12:19:14.142Z,62
2022-11-23T12:20:30.344Z,62
2022-11-23T12:21:46.530Z,62
2022-11-23T12:23:02.481Z,62.1
2022-11-23T12:24:18.895Z,62
2022-11-23T12:25:35.093Z,62.1
2022-11-23T12:26:50.057Z,62.1
2022-11-23T12:28:06.483Z,62.1
2022-11-23T12:29:22.441Z,62.1
2022-11-23T12:30:38.860Z,62.1
2022-11-23T12:31:54.825Z,62.1
2022-11-23T12:33:11.241Z,62.1
2022-11-23T12:34:27.446Z,62.1
2022-11-23T12:35:43.386Z,62.1
2022-11-23T12:36:59.574Z,62.1
2022-11-23T12:38:16.005Z,62.1
2022-11-23T12:39:31.958Z,62.1
2022-11-23T12:40:48.390Z,62.2
2022-11-23T12:42:04.344Z,62.3
2022-11-23T12:43:19.540Z,62.2
2022-11-23T12:44:35.980Z,62.3
2022-11-23T12:45:52.154Z,62.2
2022-11-23T12:47:08.355Z,62.2
2022-11-23T12:48:24.533Z,62.3
2022-11-23T12:49:40.735Z,62.3
2022-11-23T12:50:56.916Z,62.2
2022-11-23T12:52:13.096Z,62.3
2022-11-23T12:53:29.297Z,62.3
2022-11-23T12:54:45.253Z,62.3
2022-11-23T12:56:01.439Z,62.3
2022-11-23T12:57:17.631Z,62.4
2022-11-23T12:58:34.049Z,62.4
2022-11-23T12:59:49.257Z,62.5
2022-11-23T13:01:05.436Z,62.4
2022-11-23T13:02:21.641Z,62.5
2022-11-23T13:03:37.577Z,62.5
2022-11-23T13:04:54.015Z,62.4
2022-11-23T13:06:10.206Z,62.4
2022-11-23T13:07:26.145Z,62.5
2022-11-23T13:08:42.571Z,62.6
2022-11-23T13:09:58.522Z,62.6
2022-11-23T13:11:14.956Z,62.6
2022-11-23T13:12:31.149Z,62.5
2022-11-23T13:13:47.341Z,62.6
2022-11-23T13:15:03.290Z,62.6
2022-11-23T13:16:18.738Z,62.7
2022-11-23T13:17:34.915Z,62.7
2022-11-23T13:18:51.118Z,62.7
2022-11-23T13:20:07.069Z,62.7
2022-11-23T13:21:23.244Z,62.7
2022-11-23T13:22:39.685Z,62.9
2022-11-23T13:23:55.868Z,62.7
2022-11-23T13:25:11.805Z,62.6
2022-11-23T13:26:28.246Z,62.5
2022-11-23T13:27:44.429Z,62.5
2022-11-23T13:29:00.389Z,62.5
2022-11-23T13:30:16.564Z,62.4
2022-11-23T13:31:33.012Z,62.6
2022-11-23T13:32:47.964Z,62.5
2022-11-23T13:34:04.150Z,62.6
2022-11-23T13:35:20.335Z,62.8
2022-11-23T13:36:36.520Z,62.9
2022-11-23T13:37:52.972Z,63
2022-11-23T13:39:09.154Z,63.1
2022-11-23T13:40:25.339Z,63.1
2022-11-23T13:41:41.276Z,63.1
2022-11-23T13:42:57.732Z,63.2
2022-11-23T13:44:13.905Z,63.3
2022-11-23T13:45:29.852Z,63.4
2022-11-23T13:46:46.043Z,63.5
2022-11-23T13:48:02.236Z,63.5
2022-11-23T13:49:17.695Z,63.5
2022-11-23T13:50:33.622Z,63.6
2022-11-23T13:51:50.064Z,63.7
2022-11-23T13:53:06.253Z,63.7
2022-11-23T13:54:22.191Z,63.7
2022-11-23T13:55:38.635Z,63.7
2022-11-23T13:56:54.565Z,63.8
2022-11-23T13:58:11.005Z,63.8
2022-11-23T13:59:26.945Z,63.9
2022-11-23T14:00:43.389Z,64
2022-11-23T14:01:59.578Z,64.1
2022-11-23T14:03:15.514Z,64.1
2022-11-23T14:04:31.948Z,64
2022-11-23T14:05:46.917Z,64.1
2022-11-23T14:07:03.356Z,64.2
2022-11-23T14:08:19.283Z,64.2
2022-11-23T14:09:35.464Z,64.3
2022-11-23T14:10:51.654Z,64.4
2022-11-23T14:12:07.855Z,64.4
2022-11-23T14:13:24.292Z,64.4
2022-11-23T14:14:40.492Z,64.4
2022-11-23T14:15:56.683Z,64.5
2022-11-23T14:17:12.870Z,64.6
2022-11-23T14:18:28.799Z,64.6
2022-11-23T14:19:45.242Z,64.6
2022-11-23T14:21:01.439Z,64.6
2022-11-23T14:22:16.642Z,64.7
2022-11-23T14:23:32.832Z,64.7
2022-11-23T14:24:49.012Z,64.9
2022-11-23T14:26:04.947Z,64.9
2022-11-23T14:27:21.401Z,65
2022-11-23T14:28:37.329Z,65
2022-11-23T14:29:53.764Z,65.1
2022-11-23T14:31:09.698Z,65.2
2022-11-23T14:32:26.151Z,65.2
2022-11-23T14:33:42.088Z,65.3
2022-11-23T14:34:58.534Z,65.3
2022-11-23T14:36:14.723Z,65.4
2022-11-23T14:37:30.655Z,65.4
2022-11-23T14:38:46.120Z,65.5
2022-11-23T14:40:02.308Z,65.5
2022-11-23T14:41:18.237Z,65.5
2022-11-23T14:42:34.685Z,65.7
2022-11-23T14:43:50.875Z,65.6
2022-11-23T14:45:07.055Z,65.6
2022-11-23T14:46:22.997Z,65.7
2022-11-23T14:47:39.439Z,65.7
2022-11-23T14:48:55.361Z,65.9
2022-11-23T14:50:11.561Z,65.8
2022-11-23T14:51:27.998Z,65.8
2022-11-23T14:52:44.192Z,65.9
2022-11-23T14:54:00.116Z,66
2022-11-23T14:55:15.590Z,66
2022-11-23T14:56:31.514Z,66
2022-11-23T14:57:47.706Z,66.1
2022-11-23T14:59:04.147Z,66.1
2022-11-23T15:00:20.344Z,66.1
2022-11-23T15:01:36.276Z,66.1
2022-11-23T15:02:51.470Z,66.2
2022-11-23T15:04:07.664Z,66.2
2022-11-23T15:05:24.126Z,66.3
2022-11-23T15:06:40.036Z,66.3
2022-11-23T15:07:56.511Z,66.4
2022-11-23T15:09:12.427Z,66.4
2022-11-23T15:10:28.612Z,66.5
2022-11-23T15:11:44.806Z,66.5
2022-11-23T15:13:00.981Z,66.5
2022-11-23T15:14:17.440Z,66.6
2022-11-23T15:15:33.362Z,66.6
2022-11-23T15:16:49.817Z,66.6
2022-11-23T15:18:06.023Z,66.6
2022-11-23T15:19:21.229Z,66.6
2022-11-23T15:20:37.409Z,66.7
2022-11-23T15:21:53.589Z,66.7
2022-11-23T15:23:09.513Z,66.8
2022-11-23T15:24:25.696Z,66.8
2022-11-23T15:25:42.156Z,66.8
2022-11-23T15:26:58.353Z,66.8
2022-11-23T15:28:14.262Z,66.9
2022-11-23T15:29:30.736Z,67
2022-11-23T15:30:46.927Z,67
2022-11-23T15:32:03.117Z,67
2022-11-23T15:33:19.291Z,67.1
2022-11-23T15:34:35.208Z,67.1
2022-11-23T15:35:50.417Z,67.1
2022-11-23T15:37:06.894Z,67.1
2022-11-23T15:38:23.067Z,67.1
2022-11-23T15:39:38.990Z,67.2
2022-11-23T15:40:55.168Z,67.2
2022-11-23T15:42:11.642Z,67.2
2022-11-23T15:43:27.834Z,67.2
2022-11-23T15:44:44.024Z,67.2
2022-11-23T15:46:00.207Z,67.3
2022-11-23T15:47:16.131Z,67.3
2022-11-23T15:48:32.314Z,67.2
2022-11-23T15:49:48.488Z,67.3
2022-11-23T15:51:04.683Z,67.3
2022-11-23T15:52:20.179Z,67.4
2022-11-23T15:53:36.085Z,67.4
2022-11-23T15:54:52.541Z,67.3
2022-11-23T15:56:08.741Z,67.4
2022-11-23T15:57:24.927Z,67.5
2022-11-23T15:58:41.119Z,67.6
2022-11-23T15:59:57.302Z,67.7
2022-11-23T16:01:13.209Z,67.7
2022-11-23T16:02:29.691Z,67.7
2022-11-23T16:03:45.878Z,67.6
2022-11-23T16:05:01.790Z,67.7
2022-11-23T16:06:17.967Z,67.4
2022-11-23T16:07:34.444Z,67.4
2022-11-23T16:08:49.647Z,67.3
2022-11-23T16:10:05.561Z,67.3
2022-11-23T16:11:22.018Z,67.3
2022-11-23T16:12:38.216Z,67.3
2022-11-23T16:13:54.394Z,67.3
2022-11-23T16:15:10.587Z,67.4
2022-11-23T16:16:26.789Z,67.4
2022-11-23T16:17:42.694Z,67.4
2022-11-23T16:18:58.872Z,67.4
2022-11-23T16:20:15.061Z,67.5
2022-11-23T16:21:31.551Z,67.4
2022-11-23T16:22:47.731Z,67.5
2022-11-23T16:24:03.907Z,67.5
2022-11-23T16:25:18.845Z,67.5
2022-11-23T16:26:35.313Z,67.5
2022-11-23T16:27:51.210Z,67.6
2022-11-23T16:29:07.690Z,67.5
2022-11-23T16:30:23.881Z,67.6
2022-11-23T16:31:39.773Z,67.6
2022-11-23T16:32:56.252Z,67.6
2022-11-23T16:34:12.435Z,67.7
2022-11-23T16:35:28.346Z,67.6
2022-11-23T16:36:44.813Z,67.6
2022-11-23T16:38:00.722Z,67.6
2022-11-23T16:39:16.916Z,67.6
2022-11-23T16:40:33.098Z,67.6
2022-11-23T16:41:48.594Z,67.7
2022-11-23T16:43:04.792Z,67.7
2022-11-23T16:44:20.681Z,67.8
2022-11-23T16:45:37.159Z,67.8
2022-11-23T16:46:53.342Z,67.8
2022-11-23T16:48:09.543Z,67.8
2022-11-23T16:49:25.729Z,67.8
2022-11-23T16:50:41.628Z,67.8
2022-11-23T16:51:58.116Z,67.8
2022-11-23T16:53:14.293Z,67.7
2022-11-23T16:54:30.491Z,67.8
2022-11-23T16:55:46.377Z,67.8
2022-11-23T16:57:02.867Z,67.9
2022-11-23T16:58:17.786Z,67.9